createdAt,value
2023-03-07T00:00:38.803Z,15.05
2023-03-07T00:03:05.726Z,14.71
2023-03-07T00:05:32.332Z,15.48
2023-03-07T00:08:00.407Z,15.44
2023-03-07T00:10:27.247Z,15.35
2023-03-07T00:12:56.828Z,15.41
2023-03-07T00:15:25.825Z,15.83
2023-03-07T00:18:00.384Z,16.38
2023-03-07T00:20:30.143Z,16.18
2023-03-07T00:22:57.365Z,16.50
2023-03-07T00:25:24.192Z,16.62
2023-03-07T00:27:58.181Z,16.24
2023-03-07T00:30:25.946Z,16.52
2023-03-07T00:32:52.725Z,16.19
2023-03-07T00:35:21.486Z,16.14
2023-03-07T00:37:48.732Z,16.14
2023-03-07T00:40:16.235Z,16.34
2023-03-07T00:42:43.496Z,16.37
2023-03-07T00:45:10.786Z,16.40
2023-03-07T00:47:39.866Z,15.80
2023-03-07T00:50:08.450Z,15.64
2023-03-07T00:52:35.291Z,16.20
2023-03-07T00:55:04.340Z,16.45
2023-03-07T00:57:32.931Z,16.61
2023-03-07T01:00:00.211Z,16.32
2023-03-07T01:02:28.179Z,16.17
2023-03-07T01:04:55.267Z,15.76
2023-03-07T01:07:22.147Z,16.15
2023-03-07T01:09:48.639Z,16.13
2023-03-07T01:12:17.031Z,17.30
2023-03-07T01:14:45.289Z,17.45
2023-03-07T01:17:12.705Z,17.71
2023-03-07T01:19:41.071Z,17.43
2023-03-07T01:22:08.720Z,17.82
2023-03-07T01:24:42.687Z,16.63
2023-03-07T01:27:11.766Z,16.99
2023-03-07T01:29:38.764Z,17.57
2023-03-07T01:32:06.326Z,17.61
2023-03-07T01:34:33.961Z,16.93
2023-03-07T01:37:01.269Z,16.75
2023-03-07T01:39:29.203Z,17.27
2023-03-07T01:41:56.002Z,17.59
2023-03-07T01:44:22.827Z,17.79
2023-03-07T01:46:53.194Z,17.84
2023-03-07T01:49:20.530Z,17.38
2023-03-07T01:51:54.218Z,17.22
2023-03-07T01:54:21.725Z,17.48
2023-03-07T01:56:51.516Z,18.39
2023-03-07T01:59:19.691Z,18.67
2023-03-07T02:01:47.009Z,18.01
2023-03-07T02:04:13.528Z,18.03
2023-03-07T02:09:21.877Z,18.43
2023-03-07T02:11:49.214Z,18.59
2023-03-07T02:14:15.896Z,19.09
2023-03-07T02:16:47.586Z,18.78
2023-03-07T02:19:14.991Z,19.03
2023-03-07T02:21:41.808Z,19.43
2023-03-07T02:24:09.908Z,19.05
2023-03-07T02:26:37.359Z,18.51
2023-03-07T02:29:04.134Z,19.31
2023-03-07T02:31:31.434Z,18.84
2023-03-07T02:33:58.941Z,19.16
2023-03-07T02:36:26.352Z,19.19
2023-03-07T02:41:36.305Z,19.37
2023-03-07T02:44:03.549Z,18.90
2023-03-07T02:46:30.508Z,19.25
2023-03-07T02:48:59.662Z,19.46
2023-03-07T02:51:26.296Z,19.20
2023-03-07T02:53:55.042Z,19.24
2023-03-07T02:56:21.979Z,19.38
2023-03-07T02:58:51.604Z,19.42
2023-03-07T03:01:18.416Z,19.30
2023-03-07T03:03:47.053Z,19.50
2023-03-07T03:06:14.391Z,18.91
2023-03-07T03:08:41.230Z,18.87
2023-03-07T03:11:08.572Z,19.07
2023-03-07T03:13:36.219Z,19.02
2023-03-07T03:16:10.716Z,19.62
2023-03-07T03:18:40.390Z,20.11
2023-03-07T03:21:09.117Z,19.38
2023-03-07T03:23:37.441Z,19.38
2023-03-07T03:26:04.528Z,18.83
2023-03-07T03:28:31.277Z,18.90
2023-03-07T03:30:58.634Z,19.19
2023-03-07T03:33:25.471Z,19.15
2023-03-07T03:35:52.504Z,20.00
2023-03-07T03:38:19.163Z,19.69
2023-03-07T03:40:48.181Z,19.67
2023-03-07T03:43:15.550Z,19.61
2023-03-07T03:45:42.268Z,19.99
2023-03-07T03:48:09.841Z,19.53
2023-03-07T03:50:38.160Z,19.37
2023-03-07T03:53:07.085Z,20.24
2023-03-07T03:55:34.816Z,19.58
2023-03-07T03:58:03.216Z,19.91
2023-03-07T04:00:29.819Z,19.74
2023-03-07T04:02:58.187Z,19.71
2023-03-07T04:05:25.097Z,19.43
2023-03-07T04:07:59.177Z,19.58
2023-03-07T04:13:16.723Z,19.36
2023-03-07T04:15:43.651Z,19.82
2023-03-07T04:18:12.621Z,19.07
2023-03-07T04:20:42.302Z,19.63
2023-03-07T04:23:09.713Z,19.30
2023-03-07T04:25:41.058Z,19.18
2023-03-07T04:28:08.727Z,18.54
2023-03-07T04:30:36.156Z,18.50
2023-03-07T04:33:03.106Z,18.54
2023-03-07T04:35:29.811Z,18.58
2023-03-07T04:37:56.399Z,18.42
2023-03-07T04:40:26.956Z,18.48
2023-03-07T04:42:56.888Z,18.73
2023-03-07T04:45:26.503Z,19.26
2023-03-07T04:50:37.938Z,18.22
2023-03-07T04:53:04.699Z,18.19
2023-03-07T04:55:34.243Z,18.75
2023-03-07T04:58:01.559Z,18.56
2023-03-07T05:00:28.552Z,18.65
2023-03-07T05:02:55.418Z,18.53
2023-03-07T05:05:22.032Z,18.95
2023-03-07T05:07:48.679Z,19.01
2023-03-07T05:10:15.521Z,18.92
2023-03-07T05:12:48.515Z,18.51
2023-03-07T05:15:16.000Z,19.42
2023-03-07T05:17:42.590Z,19.09
2023-03-07T05:20:09.104Z,19.55
2023-03-07T05:22:37.105Z,19.12
2023-03-07T05:25:04.089Z,19.14
2023-03-07T05:27:31.086Z,19.29
2023-03-07T05:29:57.962Z,18.96
2023-03-07T05:32:24.877Z,18.80
2023-03-07T05:34:52.357Z,19.04
2023-03-07T05:37:19.327Z,19.30
2023-03-07T05:39:46.821Z,19.86
2023-03-07T05:42:15.358Z,18.81
2023-03-07T05:44:45.104Z,18.48
2023-03-07T05:47:11.777Z,19.16
2023-03-07T05:49:38.995Z,18.64
2023-03-07T05:52:05.666Z,18.25
2023-03-07T05:54:33.298Z,18.29
2023-03-07T05:57:02.910Z,18.27
2023-03-07T05:59:31.953Z,18.73
2023-03-07T06:01:58.939Z,18.50
2023-03-07T06:04:32.714Z,18.11
2023-03-07T06:07:01.133Z,18.04
2023-03-07T06:09:28.521Z,18.35
2023-03-07T06:11:55.160Z,17.96
2023-03-07T06:14:23.065Z,18.81
2023-03-07T06:16:49.982Z,19.57
2023-03-07T06:19:16.869Z,18.61
2023-03-07T06:21:44.469Z,18.01
2023-03-07T06:24:11.446Z,17.92
2023-03-07T06:26:38.221Z,18.12
2023-03-07T06:29:05.056Z,18.82
2023-03-07T06:31:33.872Z,18.48
2023-03-07T06:34:02.869Z,19.63
2023-03-07T06:36:29.717Z,19.04
2023-03-07T06:38:56.888Z,18.82
2023-03-07T06:41:33.860Z,19.22
2023-03-07T06:44:08.181Z,19.49
2023-03-07T06:52:43.148Z,18.78
2023-03-07T06:55:10.098Z,19.71
2023-03-07T06:57:38.344Z,20.35
2023-03-07T07:00:04.838Z,20.39
2023-03-07T07:02:32.784Z,20.17
2023-03-07T07:05:01.411Z,19.68
2023-03-07T07:07:31.098Z,20.29
2023-03-07T07:09:57.677Z,19.60
2023-03-07T07:12:25.013Z,18.75
2023-03-07T07:14:52.525Z,17.67
2023-03-07T07:17:26.218Z,18.31
2023-03-07T07:19:57.571Z,17.97
2023-03-07T07:22:25.215Z,17.37
2023-03-07T07:24:52.657Z,18.07
2023-03-07T07:27:20.122Z,18.28
2023-03-07T07:29:46.983Z,18.61
2023-03-07T07:32:14.503Z,18.56
2023-03-07T07:34:43.338Z,18.19
2023-03-07T07:37:10.279Z,18.36
2023-03-07T07:39:37.111Z,18.48
2023-03-07T07:42:13.692Z,17.84
2023-03-07T07:44:40.961Z,18.23
2023-03-07T07:47:07.788Z,18.02
2023-03-07T07:49:40.300Z,19.51
2023-03-07T07:52:09.051Z,19.48
2023-03-07T13:12:35.700Z,18.28
